sensor_id;sensor_type;location;lat;lon;timestamp;pressure;altitude;pressure_sealevel;temperature;humidity
31911;BME280;18457;52.432;16.914;2024-01-27T00:00:28;100857.29;;;6.26;79.93
31911;BME280;18457;52.432;16.914;2024-01-27T00:03:21;100861.58;;;6.27;80.39
31911;BME280;18457;52.432;16.914;2024-01-27T00:05:54;100859.27;;;6.28;80.17
31911;BME280;18457;52.432;16.914;2024-01-27T00:08:26;100868.23;;;6.25;80.40
31911;BME280;18457;52.432;16.914;2024-01-27T00:10:59;100867.70;;;6.31;80.80
31911;BME280;18457;52.432;16.914;2024-01-27T00:13:31;100871.09;;;6.26;80.74
31911;BME280;18457;52.432;16.914;2024-01-27T00:16:04;100877.38;;;6.25;80.84
31911;BME280;18457;52.432;16.914;2024-01-27T00:18:38;100885.09;;;6.25;81.00
31911;BME280;18457;52.432;16.914;2024-01-27T00:21:10;100887.08;;;6.26;80.95
31911;BME280;18457;52.432;16.914;2024-01-27T00:23:43;100892.27;;;6.23;81.01
31911;BME280;18457;52.432;16.914;2024-01-27T00:26:15;100896.39;;;6.21;80.96
31911;BME280;18457;52.432;16.914;2024-01-27T00:28:47;100901.05;;;6.20;80.98
31911;BME280;18457;52.432;16.914;2024-01-27T00:31:19;100900.16;;;6.19;81.02
31911;BME280;18457;52.432;16.914;2024-01-27T00:33:51;100896.04;;;6.17;81.27
31911;BME280;18457;52.432;16.914;2024-01-27T00:36:23;100903.03;;;6.24;81.17
31911;BME280;18457;52.432;16.914;2024-01-27T00:38:55;100904.64;;;6.21;80.29
31911;BME280;18457;52.432;16.914;2024-01-27T00:41:27;100904.47;;;6.18;80.75
31911;BME280;18457;52.432;16.914;2024-01-27T00:43:59;100905.35;;;6.18;80.52
31911;BME280;18457;52.432;16.914;2024-01-27T00:46:30;100911.63;;;6.20;80.71
31911;BME280;18457;52.432;16.914;2024-01-27T00:49:02;100915.23;;;6.20;80.77
31911;BME280;18457;52.432;16.914;2024-01-27T00:51:35;100928.50;;;6.19;80.75
31911;BME280;18457;52.432;16.914;2024-01-27T00:54:07;100924.36;;;6.14;80.48
31911;BME280;18457;52.432;16.914;2024-01-27T00:56:39;100931.88;;;6.09;80.45
31911;BME280;18457;52.432;16.914;2024-01-27T00:59:11;100930.09;;;6.09;80.67
31911;BME280;18457;52.432;16.914;2024-01-27T01:01:43;100933.30;;;6.07;80.40
31911;BME280;18457;52.432;16.914;2024-01-27T01:04:15;100933.50;;;6.09;80.34
31911;BME280;18457;52.432;16.914;2024-01-27T01:06:47;100934.59;;;6.11;80.01
31911;BME280;18457;52.432;16.914;2024-01-27T01:09:19;100932.80;;;6.08;79.75
31911;BME280;18457;52.432;16.914;2024-01-27T01:11:51;100930.98;;;6.08;79.94
31911;BME280;18457;52.432;16.914;2024-01-27T01:14:25;100943.00;;;6.09;80.10
31911;BME280;18457;52.432;16.914;2024-01-27T01:16:57;100939.95;;;6.07;79.60
31911;BME280;18457;52.432;16.914;2024-01-27T01:19:29;100931.16;;;6.09;79.99
31911;BME280;18457;52.432;16.914;2024-01-27T01:22:01;100932.59;;;6.06;79.98
31911;BME280;18457;52.432;16.914;2024-01-27T01:24:33;100926.86;;;6.05;80.24
31911;BME280;18457;52.432;16.914;2024-01-27T01:27:05;100936.36;;;6.04;80.04
31911;BME280;18457;52.432;16.914;2024-01-27T01:29:36;100936.34;;;6.03;79.68
31911;BME280;18457;52.432;16.914;2024-01-27T01:32:08;100940.11;;;6.02;79.93
31911;BME280;18457;52.432;16.914;2024-01-27T01:34:40;100937.42;;;6.02;79.81
31911;BME280;18457;52.432;16.914;2024-01-27T01:37:12;100941.55;;;6.03;79.94
31911;BME280;18457;52.432;16.914;2024-01-27T01:39:45;100944.40;;;5.99;79.53
31911;BME280;18457;52.432;16.914;2024-01-27T01:42:17;100947.11;;;6.01;79.75
31911;BME280;18457;52.432;16.914;2024-01-27T01:44:51;100945.69;;;6.04;79.41
31911;BME280;18457;52.432;16.914;2024-01-27T01:47:22;100948.91;;;6.05;78.75
31911;BME280;18457;52.432;16.914;2024-01-27T01:49:54;100948.52;;;5.96;78.60
31911;BME280;18457;52.432;16.914;2024-01-27T01:52:27;100942.59;;;5.93;78.79
31911;BME280;18457;52.432;16.914;2024-01-27T01:54:59;100944.58;;;5.99;78.82
31911;BME280;18457;52.432;16.914;2024-01-27T01:57:31;100946.72;;;5.96;78.78
31911;BME280;18457;52.432;16.914;2024-01-27T02:00:05;100947.97;;;5.93;78.87
31911;BME280;18457;52.432;16.914;2024-01-27T02:02:44;100945.45;;;5.93;78.68
31911;BME280;18457;52.432;16.914;2024-01-27T02:05:17;100943.32;;;5.96;78.56
31911;BME280;18457;52.432;16.914;2024-01-27T02:07:49;100946.56;;;5.99;78.57
31911;BME280;18457;52.432;16.914;2024-01-27T02:10:21;100947.45;;;5.96;78.51
31911;BME280;18457;52.432;16.914;2024-01-27T02:12:54;100950.48;;;5.97;78.02
31911;BME280;18457;52.432;16.914;2024-01-27T02:15:26;100946.91;;;5.96;78.08
31911;BME280;18457;52.432;16.914;2024-01-27T02:17:58;100940.08;;;5.94;77.92
31911;BME280;18457;52.432;16.914;2024-01-27T02:20:30;100942.08;;;5.98;78.12
31911;BME280;18457;52.432;16.914;2024-01-27T02:23:02;100948.70;;;5.93;78.12
31911;BME280;18457;52.432;16.914;2024-01-27T02:25:36;100943.14;;;5.94;78.22
31911;BME280;18457;52.432;16.914;2024-01-27T02:28:06;100942.42;;;5.93;78.02
31911;BME280;18457;52.432;16.914;2024-01-27T02:30:38;100945.83;;;5.91;78.24
31911;BME280;18457;52.432;16.914;2024-01-27T02:33:11;100949.59;;;5.91;78.04
31911;BME280;18457;52.432;16.914;2024-01-27T02:35:43;100950.83;;;5.88;78.04
31911;BME280;18457;52.432;16.914;2024-01-27T02:38:15;100951.36;;;5.88;78.16
31911;BME280;18457;52.432;16.914;2024-01-27T02:40:47;100956.04;;;5.90;78.02
31911;BME280;18457;52.432;16.914;2024-01-27T02:43:20;100957.11;;;5.91;77.50
31911;BME280;18457;52.432;16.914;2024-01-27T02:45:52;100956.03;;;5.90;77.90
31911;BME280;18457;52.432;16.914;2024-01-27T02:48:24;100966.80;;;5.88;77.66
31911;BME280;18457;52.432;16.914;2024-01-27T02:50:56;100958.02;;;5.95;77.59
31911;BME280;18457;52.432;16.914;2024-01-27T02:53:28;100953.71;;;5.92;77.63
31911;BME280;18457;52.432;16.914;2024-01-27T02:56:01;100956.38;;;5.87;77.69
31911;BME280;18457;52.432;16.914;2024-01-27T02:58:33;100951.89;;;5.86;77.63
31911;BME280;18457;52.432;16.914;2024-01-27T03:01:05;100961.74;;;5.85;77.42
31911;BME280;18457;52.432;16.914;2024-01-27T03:03:38;100963.73;;;5.87;77.63
31911;BME280;18457;52.432;16.914;2024-01-27T03:06:15;100962.66;;;5.88;77.35
31911;BME280;18457;52.432;16.914;2024-01-27T03:08:47;100960.86;;;5.87;77.40
31911;BME280;18457;52.432;16.914;2024-01-27T03:11:19;100953.52;;;5.86;77.47
31911;BME280;18457;52.432;16.914;2024-01-27T03:13:52;100954.95;;;5.86;77.47
31911;BME280;18457;52.432;16.914;2024-01-27T03:16:24;100956.38;;;5.87;77.29
31911;BME280;18457;52.432;16.914;2024-01-27T03:18:56;100956.20;;;5.87;77.42
31911;BME280;18457;52.432;16.914;2024-01-27T03:21:29;100952.81;;;5.91;77.35
31911;BME280;18457;52.432;16.914;2024-01-27T03:24:01;100953.16;;;5.89;77.43
31911;BME280;18457;52.432;16.914;2024-01-27T03:26:32;100950.27;;;5.86;77.61
31911;BME280;18457;52.432;16.914;2024-01-27T03:29:04;100955.27;;;5.83;78.11
31911;BME280;18457;52.432;16.914;2024-01-27T03:31:37;100953.88;;;5.85;78.25
31911;BME280;18457;52.432;16.914;2024-01-27T03:34:09;100964.39;;;5.81;78.30
31911;BME280;18457;52.432;16.914;2024-01-27T03:36:41;100956.52;;;5.82;78.45
31911;BME280;18457;52.432;16.914;2024-01-27T03:39:13;100957.92;;;5.79;78.58
31911;BME280;18457;52.432;16.914;2024-01-27T03:41:45;100966.90;;;5.80;78.82
31911;BME280;18457;52.432;16.914;2024-01-27T03:44:18;100965.81;;;5.78;79.20
31911;BME280;18457;52.432;16.914;2024-01-27T03:46:50;100969.02;;;5.77;79.20
31911;BME280;18457;52.432;16.914;2024-01-27T03:49:22;100968.67;;;5.78;79.36
31911;BME280;18457;52.432;16.914;2024-01-27T03:51:54;100973.19;;;5.82;79.32
31911;BME280;18457;52.432;16.914;2024-01-27T03:54:26;100963.30;;;5.79;79.44
31911;BME280;18457;52.432;16.914;2024-01-27T03:56:58;100968.30;;;5.75;79.56
31911;BME280;18457;52.432;16.914;2024-01-27T03:59:30;100967.41;;;5.76;79.57
31911;BME280;18457;52.432;16.914;2024-01-27T04:02:02;100972.41;;;5.72;79.70
31911;BME280;18457;52.432;16.914;2024-01-27T04:04:34;100976.35;;;5.73;80.01
31911;BME280;18457;52.432;16.914;2024-01-27T04:07:07;100981.39;;;5.75;79.82
31911;BME280;18457;52.432;16.914;2024-01-27T04:09:39;100984.96;;;5.73;79.84
31911;BME280;18457;52.432;16.914;2024-01-27T04:12:11;100992.50;;;5.74;80.14
31911;BME280;18457;52.432;16.914;2024-01-27T04:14:43;100988.20;;;5.73;80.19
31911;BME280;18457;52.432;16.914;2024-01-27T04:17:15;100993.38;;;5.68;80.02
31911;BME280;18457;52.432;16.914;2024-01-27T04:19:47;100993.17;;;5.67;80.17
31911;BME280;18457;52.432;16.914;2024-01-27T04:22:19;101000.88;;;5.67;80.22
31911;BME280;18457;52.432;16.914;2024-01-27T04:24:51;101001.06;;;5.64;80.05
31911;BME280;18457;52.432;16.914;2024-01-27T04:27:23;101006.42;;;5.64;80.19
31911;BME280;18457;52.432;16.914;2024-01-27T04:29:55;101004.10;;;5.66;80.34
31911;BME280;18457;52.432;16.914;2024-01-27T04:32:28;101007.86;;;5.64;80.56
31911;BME280;18457;52.432;16.914;2024-01-27T04:35:00;101013.61;;;5.65;80.69
31911;BME280;18457;52.432;16.914;2024-01-27T04:37:32;101000.67;;;5.61;80.47
31911;BME280;18457;52.432;16.914;2024-01-27T04:40:03;100992.27;;;5.62;80.58
31911;BME280;18457;52.432;16.914;2024-01-27T04:42:37;100999.09;;;5.63;80.88
31911;BME280;18457;52.432;16.914;2024-01-27T04:45:10;100998.35;;;5.60;81.15
31911;BME280;18457;52.432;16.914;2024-01-27T04:47:42;101015.19;;;5.58;81.04
31911;BME280;18457;52.432;16.914;2024-01-27T04:50:14;101003.71;;;5.58;81.12
31911;BME280;18457;52.432;16.914;2024-01-27T04:52:47;101009.09;;;5.58;81.08
31911;BME280;18457;52.432;16.914;2024-01-27T04:55:18;101011.77;;;5.57;81.47
31911;BME280;18457;52.432;16.914;2024-01-27T04:57:50;101013.70;;;5.53;81.56
31911;BME280;18457;52.432;16.914;2024-01-27T05:00:22;101012.30;;;5.57;81.67
31911;BME280;18457;52.432;16.914;2024-01-27T05:02:55;101012.48;;;5.57;81.66
31911;BME280;18457;52.432;16.914;2024-01-27T05:05:30;101007.48;;;5.59;81.52
31911;BME280;18457;52.432;16.914;2024-01-27T05:08:07;101003.14;;;5.54;81.58
31911;BME280;18457;52.432;16.914;2024-01-27T05:10:39;100999.58;;;5.58;81.47
31911;BME280;18457;52.432;16.914;2024-01-27T05:13:11;101005.48;;;5.56;81.27
31911;BME280;18457;52.432;16.914;2024-01-27T05:15:43;101007.07;;;5.53;81.34
31911;BME280;18457;52.432;16.914;2024-01-27T05:18:15;101010.13;;;5.52;81.35
31911;BME280;18457;52.432;16.914;2024-01-27T05:20:47;101002.59;;;5.53;81.43
31911;BME280;18457;52.432;16.914;2024-01-27T05:23:20;101006.70;;;5.49;81.50
31911;BME280;18457;52.432;16.914;2024-01-27T05:25:52;100999.36;;;5.52;81.68
31911;BME280;18457;52.432;16.914;2024-01-27T05:28:25;100992.55;;;5.53;81.72
31911;BME280;18457;52.432;16.914;2024-01-27T05:30:57;101002.05;;;5.52;81.71
31911;BME280;18457;52.432;16.914;2024-01-27T05:33:29;101006.16;;;5.49;81.66
31911;BME280;18457;52.432;16.914;2024-01-27T05:36:02;101005.98;;;5.49;81.95
31911;BME280;18457;52.432;16.914;2024-01-27T05:38:34;101005.22;;;5.42;82.26
31911;BME280;18457;52.432;16.914;2024-01-27T05:41:07;101018.84;;;5.44;82.14
31911;BME280;18457;52.432;16.914;2024-01-27T05:43:39;101022.96;;;5.43;82.42
31911;BME280;18457;52.432;16.914;2024-01-27T05:46:11;101023.33;;;5.44;82.70
31911;BME280;18457;52.432;16.914;2024-01-27T05:48:44;101031.73;;;5.42;83.07
31911;BME280;18457;52.432;16.914;2024-01-27T05:51:16;101030.66;;;5.41;83.16
31911;BME280;18457;52.432;16.914;2024-01-27T05:53:48;101033.91;;;5.45;83.30
31911;BME280;18457;52.432;16.914;2024-01-27T05:56:20;101034.25;;;5.42;83.24
31911;BME280;18457;52.432;16.914;2024-01-27T05:58:52;101038.35;;;5.41;83.67
31911;BME280;18457;52.432;16.914;2024-01-27T06:01:25;101036.04;;;5.41;83.57
31911;BME280;18457;52.432;16.914;2024-01-27T06:03:57;101044.81;;;5.40;83.44
31911;BME280;18457;52.432;16.914;2024-01-27T06:06:30;101043.01;;;5.40;83.56
31911;BME280;18457;52.432;16.914;2024-01-27T06:09:03;101044.09;;;5.41;84.08
31911;BME280;18457;52.432;16.914;2024-01-27T06:11:35;101054.70;;;5.45;84.11
31911;BME280;18457;52.432;16.914;2024-01-27T06:14:08;101055.73;;;5.41;83.96
31911;BME280;18457;52.432;16.914;2024-01-27T06:16:41;101059.86;;;5.42;84.39
31911;BME280;18457;52.432;16.914;2024-01-27T06:19:13;101068.48;;;5.43;84.64
31911;BME280;18457;52.432;16.914;2024-01-27T06:21:44;101064.73;;;5.46;84.91
31911;BME280;18457;52.432;16.914;2024-01-27T06:24:16;101065.83;;;5.50;85.17
31911;BME280;18457;52.432;16.914;2024-01-27T06:26:49;101070.77;;;5.40;85.36
31911;BME280;18457;52.432;16.914;2024-01-27T06:29:21;101080.59;;;5.36;85.88
31911;BME280;18457;52.432;16.914;2024-01-27T06:31:53;101078.44;;;5.35;86.16
31911;BME280;18457;52.432;16.914;2024-01-27T06:34:25;101092.36;;;5.29;86.57
31911;BME280;18457;52.432;16.914;2024-01-27T06:36:58;101084.53;;;5.35;86.69
31911;BME280;18457;52.432;16.914;2024-01-27T06:39:30;101093.14;;;5.37;86.72
31911;BME280;18457;52.432;16.914;2024-01-27T06:42:02;101098.34;;;5.36;86.61
31911;BME280;18457;52.432;16.914;2024-01-27T06:44:34;101112.66;;;5.35;86.69
31911;BME280;18457;52.432;16.914;2024-01-27T06:47:06;101094.02;;;5.34;86.86
31911;BME280;18457;52.432;16.914;2024-01-27T06:49:38;101092.77;;;5.34;86.73
31911;BME280;18457;52.432;16.914;2024-01-27T06:52:11;101098.73;;;5.39;86.76
31911;BME280;18457;52.432;16.914;2024-01-27T06:54:43;101101.40;;;5.39;86.20
31911;BME280;18457;52.432;16.914;2024-01-27T06:57:23;101109.31;;;5.42;86.17
31911;BME280;18457;52.432;16.914;2024-01-27T06:59:55;101112.74;;;5.46;85.96
31911;BME280;18457;52.432;16.914;2024-01-27T07:02:28;101116.33;;;5.46;85.79
31911;BME280;18457;52.432;16.914;2024-01-27T07:05:00;101115.07;;;5.46;85.47
31911;BME280;18457;52.432;16.914;2024-01-27T07:07:32;101120.10;;;5.47;85.58
31911;BME280;18457;52.432;16.914;2024-01-27T07:10:05;101114.77;;;5.51;85.43
31911;BME280;18457;52.432;16.914;2024-01-27T07:12:38;101114.79;;;5.54;85.25
31911;BME280;18457;52.432;16.914;2024-01-27T07:15:10;101130.75;;;5.55;85.34
31911;BME280;18457;52.432;16.914;2024-01-27T07:17:43;101128.77;;;5.56;85.11
31911;BME280;18457;52.432;16.914;2024-01-27T07:20:15;101132.20;;;5.57;84.88
31911;BME280;18457;52.432;16.914;2024-01-27T07:22:48;101141.34;;;5.58;84.88
31911;BME280;18457;52.432;16.914;2024-01-27T07:25:20;101147.45;;;5.59;84.60
31911;BME280;18457;52.432;16.914;2024-01-27T07:27:52;101145.16;;;5.67;84.42
31911;BME280;18457;52.432;16.914;2024-01-27T07:30:24;101149.64;;;5.66;84.21
31911;BME280;18457;52.432;16.914;2024-01-27T07:32:56;101157.36;;;5.66;83.89
31911;BME280;18457;52.432;16.914;2024-01-27T07:35:28;101164.75;;;5.72;84.04
31911;BME280;18457;52.432;16.914;2024-01-27T07:38:02;101166.18;;;5.72;84.16
31911;BME280;18457;52.432;16.914;2024-01-27T07:40:34;101157.59;;;5.74;84.20
31911;BME280;18457;52.432;16.914;2024-01-27T07:43:07;101158.86;;;5.76;84.03
31911;BME280;18457;52.432;16.914;2024-01-27T07:45:39;101163.71;;;5.77;84.08
31911;BME280;18457;52.432;16.914;2024-01-27T07:48:11;101163.71;;;5.76;84.08
31911;BME280;18457;52.432;16.914;2024-01-27T07:50:44;101169.80;;;5.76;84.17
31911;BME280;18457;52.432;16.914;2024-01-27T07:53:19;101172.64;;;5.74;84.05
31911;BME280;18457;52.432;16.914;2024-01-27T07:55:51;101185.38;;;5.72;84.08
31911;BME280;18457;52.432;16.914;2024-01-27T07:58:24;101174.82;;;5.75;84.25
31911;BME280;18457;52.432;16.914;2024-01-27T08:00:57;101180.57;;;5.77;84.28
31911;BME280;18457;52.432;16.914;2024-01-27T08:03:29;101186.49;;;5.79;84.24
31911;BME280;18457;52.432;16.914;2024-01-27T08:06:05;101182.77;;;5.81;84.18
31911;BME280;18457;52.432;16.914;2024-01-27T08:08:40;101180.92;;;5.77;84.29
31911;BME280;18457;52.432;16.914;2024-01-27T08:11:13;101188.09;;;5.78;84.26
31911;BME280;18457;52.432;16.914;2024-01-27T08:13:45;101185.97;;;5.80;84.44
31911;BME280;18457;52.432;16.914;2024-01-27T08:16:17;101190.63;;;5.81;84.49
31911;BME280;18457;52.432;16.914;2024-01-27T08:18:49;101191.00;;;5.81;84.35
31911;BME280;18457;52.432;16.914;2024-01-27T08:21:22;101194.29;;;5.85;84.57
31911;BME280;18457;52.432;16.914;2024-01-27T08:23:55;101196.25;;;5.84;84.50
31911;BME280;18457;52.432;16.914;2024-01-27T08:26:27;101200.02;;;5.84;84.61
31911;BME280;18457;52.432;16.914;2024-01-27T08:28:59;101209.30;;;5.81;84.48
31911;BME280;18457;52.432;16.914;2024-01-27T08:31:31;101212.58;;;5.85;84.13
31911;BME280;18457;52.432;16.914;2024-01-27T08:34:03;101219.40;;;5.85;84.14
31911;BME280;18457;52.432;16.914;2024-01-27T08:36:35;101233.34;;;5.84;83.72
31911;BME280;18457;52.432;16.914;2024-01-27T08:39:08;101222.09;;;5.87;83.67
31911;BME280;18457;52.432;16.914;2024-01-27T08:41:43;101232.51;;;5.90;83.93
31911;BME280;18457;52.432;16.914;2024-01-27T08:44:15;101247.60;;;5.93;84.00
31911;BME280;18457;52.432;16.914;2024-01-27T08:46:48;101253.02;;;5.98;83.79
31911;BME280;18457;52.432;16.914;2024-01-27T08:49:20;101257.71;;;5.99;83.39
31911;BME280;18457;52.432;16.914;2024-01-27T08:51:52;101274.91;;;5.99;83.51
31911;BME280;18457;52.432;16.914;2024-01-27T08:54:26;101262.52;;;5.96;83.47
31911;BME280;18457;52.432;16.914;2024-01-27T08:56:58;101284.23;;;5.98;83.41
31911;BME280;18457;52.432;16.914;2024-01-27T08:59:30;101274.87;;;5.94;83.67
31911;BME280;18457;52.432;16.914;2024-01-27T09:02:03;101267.92;;;6.00;83.80
31911;BME280;18457;52.432;16.914;2024-01-27T09:04:35;101289.52;;;6.06;83.70
31911;BME280;18457;52.432;16.914;2024-01-27T09:07:08;101286.09;;;6.05;83.63
31911;BME280;18457;52.432;16.914;2024-01-27T09:09:40;101294.29;;;5.99;83.31
31911;BME280;18457;52.432;16.914;2024-01-27T09:12:12;101287.52;;;6.06;83.26
31911;BME280;18457;52.432;16.914;2024-01-27T09:14:45;101296.35;;;6.09;83.26
31911;BME280;18457;52.432;16.914;2024-01-27T09:17:17;101302.16;;;6.19;83.30
31911;BME280;18457;52.432;16.914;2024-01-27T09:19:50;101308.83;;;6.22;83.25
31911;BME280;18457;52.432;16.914;2024-01-27T09:22:23;101317.41;;;6.16;83.24
31911;BME280;18457;52.432;16.914;2024-01-27T09:24:55;101325.28;;;6.14;83.37
31911;BME280;18457;52.432;16.914;2024-01-27T09:27:27;101332.44;;;6.12;82.95
31911;BME280;18457;52.432;16.914;2024-01-27T09:29:59;101341.77;;;6.12;83.13
31911;BME280;18457;52.432;16.914;2024-01-27T09:32:31;101342.65;;;6.11;83.71
31911;BME280;18457;52.432;16.914;2024-01-27T09:35:04;101350.38;;;6.12;83.84
31911;BME280;18457;52.432;16.914;2024-01-27T09:37:36;101346.97;;;6.13;83.53
31911;BME280;18457;52.432;16.914;2024-01-27T09:40:10;101361.86;;;6.14;83.60
31911;BME280;18457;52.432;16.914;2024-01-27T09:42:47;101372.31;;;6.20;83.57
31911;BME280;18457;52.432;16.914;2024-01-27T09:45:23;101375.38;;;6.20;83.18
31911;BME280;18457;52.432;16.914;2024-01-27T09:47:57;101379.84;;;6.19;82.83
31911;BME280;18457;52.432;16.914;2024-01-27T09:50:32;101379.35;;;6.23;83.06
31911;BME280;18457;52.432;16.914;2024-01-27T09:53:04;101385.47;;;6.27;82.99
31911;BME280;18457;52.432;16.914;2024-01-27T09:55:39;101400.44;;;6.33;82.89
31911;BME280;18457;52.432;16.914;2024-01-27T09:58:11;101402.77;;;6.33;82.50
31911;BME280;18457;52.432;16.914;2024-01-27T10:00:45;101401.88;;;6.34;82.63
31911;BME280;18457;52.432;16.914;2024-01-27T10:03:18;101416.98;;;6.37;82.20
31911;BME280;18457;52.432;16.914;2024-01-27T10:05:52;101421.83;;;6.37;81.95
31911;BME280;18457;52.432;16.914;2024-01-27T10:08:25;101415.24;;;6.43;81.62
31911;BME280;18457;52.432;16.914;2024-01-27T10:10:57;101419.48;;;6.36;81.46
31911;BME280;18457;52.432;16.914;2024-01-27T10:13:30;101428.38;;;6.47;81.97
31911;BME280;18457;52.432;16.914;2024-01-27T10:16:03;101429.44;;;6.44;81.45
31911;BME280;18457;52.432;16.914;2024-01-27T10:18:36;101435.54;;;6.46;81.13
31911;BME280;18457;52.432;16.914;2024-01-27T10:21:13;101440.92;;;6.45;81.05
31911;BME280;18457;52.432;16.914;2024-01-27T10:23:46;101437.76;;;6.52;81.32
31911;BME280;18457;52.432;16.914;2024-01-27T10:26:16;101444.43;;;6.56;81.10
31911;BME280;18457;52.432;16.914;2024-01-27T10:28:55;101446.17;;;6.50;81.02
31911;BME280;18457;52.432;16.914;2024-01-27T10:31:29;101455.48;;;6.48;81.42
31911;BME280;18457;52.432;16.914;2024-01-27T10:34:02;101457.09;;;6.47;81.35
31911;BME280;18457;52.432;16.914;2024-01-27T10:36:42;101463.05;;;6.50;81.23
31911;BME280;18457;52.432;16.914;2024-01-27T10:39:17;101465.22;;;6.52;81.37
31911;BME280;18457;52.432;16.914;2024-01-27T10:41:52;101465.15;;;6.63;81.26
31911;BME280;18457;52.432;16.914;2024-01-27T10:44:24;101466.61;;;6.65;81.11
31911;BME280;18457;52.432;16.914;2024-01-27T10:46:59;101464.13;;;6.68;81.20
31911;BME280;18457;52.432;16.914;2024-01-27T10:49:35;101472.72;;;6.66;80.71
31911;BME280;18457;52.432;16.914;2024-01-27T10:52:12;101469.99;;;6.62;80.43
31911;BME280;18457;52.432;16.914;2024-01-27T10:54:46;101471.09;;;6.64;80.70
31911;BME280;18457;52.432;16.914;2024-01-27T10:57:17;101473.61;;;6.66;80.65
31911;BME280;18457;52.432;16.914;2024-01-27T10:59:50;101478.65;;;6.68;80.42
31911;BME280;18457;52.432;16.914;2024-01-27T11:02:23;101485.33;;;6.70;80.35
31911;BME280;18457;52.432;16.914;2024-01-27T11:04:53;101488.40;;;6.73;80.57
31911;BME280;18457;52.432;16.914;2024-01-27T11:07:26;101491.71;;;6.83;80.74
31911;BME280;18457;52.432;16.914;2024-01-27T11:09:59;101491.59;;;6.88;80.42
31911;BME280;18457;52.432;16.914;2024-01-27T11:12:32;101492.28;;;6.85;79.66
31911;BME280;18457;52.432;16.914;2024-01-27T11:15:04;101496.43;;;6.88;79.08
31911;BME280;18457;52.432;16.914;2024-01-27T11:17:41;101512.42;;;6.88;79.12
31911;BME280;18457;52.432;16.914;2024-01-27T11:20:15;101510.39;;;7.02;78.94
31911;BME280;18457;52.432;16.914;2024-01-27T11:22:47;101517.44;;;7.09;78.34
31911;BME280;18457;52.432;16.914;2024-01-27T11:25:21;101519.59;;;7.07;78.23
31911;BME280;18457;52.432;16.914;2024-01-27T11:27:53;101510.11;;;7.13;78.07
31911;BME280;18457;52.432;16.914;2024-01-27T11:30:29;101518.88;;;7.09;77.53
31911;BME280;18457;52.432;16.914;2024-01-27T11:33:04;101532.25;;;7.18;77.01
31911;BME280;18457;52.432;16.914;2024-01-27T11:35:36;101533.05;;;7.29;76.38
31911;BME280;18457;52.432;16.914;2024-01-27T11:38:08;101532.55;;;7.34;76.41
31911;BME280;18457;52.432;16.914;2024-01-27T11:40:47;101546.52;;;7.28;76.33
31911;BME280;18457;52.432;16.914;2024-01-27T11:43:21;101549.98;;;7.32;76.22
31911;BME280;18457;52.432;16.914;2024-01-27T11:45:59;101552.31;;;7.32;76.68
31911;BME280;18457;52.432;16.914;2024-01-27T11:48:32;101554.64;;;7.32;76.87
31911;BME280;18457;52.432;16.914;2024-01-27T11:51:07;101558.02;;;7.50;76.17
31911;BME280;18457;52.432;16.914;2024-01-27T11:53:40;101557.40;;;7.65;74.63
31911;BME280;18457;52.432;16.914;2024-01-27T11:56:13;101560.50;;;7.72;73.73
31911;BME280;18457;52.432;16.914;2024-01-27T11:58:49;101564.59;;;7.95;73.54
31911;BME280;18457;52.432;16.914;2024-01-27T12:01:21;101572.22;;;8.10;73.03
31911;BME280;18457;52.432;16.914;2024-01-27T12:03:53;101585.02;;;8.10;72.38
31911;BME280;18457;52.432;16.914;2024-01-27T12:06:24;101586.90;;;8.27;71.90
31911;BME280;18457;52.432;16.914;2024-01-27T12:08:57;101592.85;;;8.28;71.42
31911;BME280;18457;52.432;16.914;2024-01-27T12:11:29;101597.87;;;8.25;71.03
31911;BME280;18457;52.432;16.914;2024-01-27T12:14:01;101593.97;;;8.37;70.77
31911;BME280;18457;52.432;16.914;2024-01-27T12:16:34;101604.65;;;8.48;70.40
31911;BME280;18457;52.432;16.914;2024-01-27T12:19:06;101605.02;;;8.50;69.92
31911;BME280;18457;52.432;16.914;2024-01-27T12:21:48;101609.33;;;8.45;69.95
31911;BME280;18457;52.432;16.914;2024-01-27T12:24:20;101612.58;;;8.49;69.92
31911;BME280;18457;52.432;16.914;2024-01-27T12:26:54;101605.56;;;8.48;70.05
31911;BME280;18457;52.432;16.914;2024-01-27T12:29:28;101606.52;;;8.28;70.71
31911;BME280;18457;52.432;16.914;2024-01-27T12:32:00;101609.48;;;8.12;71.80
31911;BME280;18457;52.432;16.914;2024-01-27T12:34:32;101611.49;;;8.15;72.35
31911;BME280;18457;52.432;16.914;2024-01-27T12:37:04;101612.58;;;8.15;72.71
31911;BME280;18457;52.432;16.914;2024-01-27T12:39:36;101625.29;;;8.04;72.64
31911;BME280;18457;52.432;16.914;2024-01-27T12:42:09;101629.90;;;7.93;72.53
31911;BME280;18457;52.432;16.914;2024-01-27T12:44:41;101629.29;;;7.83;72.23
31911;BME280;18457;52.432;16.914;2024-01-27T12:47:14;101638.36;;;7.96;71.87
31911;BME280;18457;52.432;16.914;2024-01-27T12:49:46;101633.86;;;7.95;71.79
31911;BME280;18457;52.432;16.914;2024-01-27T12:52:18;101638.22;;;8.02;71.69
31911;BME280;18457;52.432;16.914;2024-01-27T12:54:53;101634.58;;;7.94;71.66
31911;BME280;18457;52.432;16.914;2024-01-27T12:57:25;101645.96;;;8.01;72.22
31911;BME280;18457;52.432;16.914;2024-01-27T12:59:58;101654.62;;;8.06;72.28
31911;BME280;18457;52.432;16.914;2024-01-27T13:02:29;101647.86;;;8.18;71.35
31911;BME280;18457;52.432;16.914;2024-01-27T13:05:01;101654.47;;;8.09;70.68
31911;BME280;18457;52.432;16.914;2024-01-27T13:07:34;101664.13;;;8.01;71.02
31911;BME280;18457;52.432;16.914;2024-01-27T13:10:07;101666.58;;;7.89;71.35
31911;BME280;18457;52.432;16.914;2024-01-27T13:12:41;101673.27;;;7.94;72.08
31911;BME280;18457;52.432;16.914;2024-01-27T13:15:15;101672.59;;;8.01;72.45
31911;BME280;18457;52.432;16.914;2024-01-27T13:17:48;101677.48;;;8.07;72.41